createdAt,value
2023-02-23T00:02:22.689Z,16.30
2023-02-23T00:04:50.700Z,15.00
2023-02-23T00:07:20.277Z,17.00
2023-02-23T00:09:48.735Z,17.00
2023-02-23T00:12:17.245Z,14.10
2023-02-23T00:14:45.477Z,18.90
2023-02-23T00:17:15.057Z,17.50
2023-02-23T00:19:44.447Z,17.10
2023-02-23T00:22:12.899Z,17.20
2023-02-23T00:24:42.907Z,16.40
2023-02-23T00:27:18.303Z,13.80
2023-02-23T00:29:49.490Z,15.30
2023-02-23T00:32:22.017Z,15.50
2023-02-23T00:34:52.480Z,16.00
2023-02-23T00:37:23.040Z,17.00
2023-02-23T00:39:52.966Z,14.40
2023-02-23T00:42:21.009Z,13.20
2023-02-23T00:44:49.712Z,14.90
2023-02-23T00:47:18.266Z,16.00
2023-02-23T00:49:46.330Z,15.10
2023-02-23T00:52:15.051Z,15.80
2023-02-23T00:54:43.585Z,14.60
2023-02-23T00:57:11.684Z,14.20
2023-02-23T00:59:40.136Z,13.40
2023-02-23T01:02:08.158Z,13.30
2023-02-23T01:04:37.901Z,11.70
2023-02-23T01:07:06.768Z,14.70
2023-02-23T01:09:36.185Z,13.60
2023-02-23T01:12:07.772Z,13.80
2023-02-23T01:14:38.060Z,14.20
2023-02-23T01:17:06.100Z,14.50
2023-02-23T01:19:34.933Z,13.10
2023-02-23T01:22:05.014Z,15.10
2023-02-23T01:24:33.095Z,14.20
2023-02-23T01:27:05.681Z,15.00
2023-02-23T01:29:35.547Z,13.90
2023-02-23T01:32:05.019Z,14.60
2023-02-23T01:34:33.368Z,12.20
2023-02-23T01:37:01.414Z,14.20
2023-02-23T01:39:30.193Z,13.20
2023-02-23T01:41:58.697Z,14.20
2023-02-23T01:44:31.927Z,12.40
2023-02-23T01:46:59.901Z,12.80
2023-02-23T01:49:31.344Z,13.20
2023-02-23T01:52:07.738Z,11.30
2023-02-23T01:54:39.289Z,11.90
2023-02-23T01:57:11.939Z,9.80
2023-02-23T01:59:46.428Z,12.30
2023-02-23T02:02:17.827Z,11.80
2023-02-23T02:04:46.140Z,11.40
2023-02-23T02:07:17.943Z,12.60
2023-02-23T02:10:08.996Z,10.40
2023-02-23T02:12:40.310Z,13.00
2023-02-23T02:15:17.383Z,12.60
2023-02-23T02:18:18.933Z,11.70
2023-02-23T02:21:12.769Z,12.40
2023-02-23T02:24:02.703Z,12.20
2023-02-23T02:26:33.779Z,10.90
2023-02-23T02:29:04.794Z,12.40
2023-02-23T02:32:11.341Z,10.40
2023-02-23T02:35:23.675Z,12.40
2023-02-23T02:37:56.667Z,12.30
2023-02-23T02:40:39.578Z,12.80
2023-02-23T02:43:15.119Z,12.80
2023-02-23T02:45:55.305Z,11.30
2023-02-23T02:48:31.212Z,12.20
2023-02-23T02:51:35.343Z,11.10
2023-02-23T02:54:11.529Z,11.40
2023-02-23T02:56:44.386Z,8.20
2023-02-23T02:59:38.891Z,12.00
2023-02-23T03:02:34.130Z,13.40
2023-02-23T03:05:33.950Z,11.90
2023-02-23T03:08:41.154Z,12.00
2023-02-23T03:11:33.070Z,7.60
2023-02-23T03:14:35.100Z,10.60
2023-02-23T03:17:27.630Z,12.50
2023-02-23T03:20:36.270Z,10.80
2023-02-23T03:23:40.670Z,11.50
2023-02-23T03:26:42.272Z,10.60
2023-02-23T03:29:29.292Z,11.80
2023-02-23T03:32:25.257Z,11.70
2023-02-23T03:38:11.874Z,11.50
2023-02-23T03:41:02.709Z,10.90
2023-02-23T03:44:05.735Z,10.50
2023-02-23T03:46:55.142Z,11.20
2023-02-23T03:49:47.879Z,8.10
2023-02-23T03:52:44.728Z,10.20
2023-02-23T03:55:37.671Z,10.90
2023-02-23T03:58:31.248Z,12.80
2023-02-23T04:01:21.933Z,12.80
2023-02-23T04:04:11.593Z,11.80
2023-02-23T04:07:02.340Z,10.40
2023-02-23T04:09:52.295Z,11.60
2023-02-23T04:12:46.809Z,10.80
2023-02-23T04:15:33.938Z,11.80
2023-02-23T04:18:05.132Z,10.20
2023-02-23T04:20:35.432Z,9.60
2023-02-23T04:23:03.610Z,11.00
2023-02-23T04:25:35.555Z,12.00
2023-02-23T04:28:03.913Z,12.00
2023-02-23T04:30:33.544Z,10.70
2023-02-23T04:33:01.519Z,10.90
2023-02-23T04:35:31.474Z,10.80
2023-02-23T04:37:59.834Z,11.00
2023-02-23T04:40:28.496Z,11.00
2023-02-23T04:42:57.214Z,11.20
2023-02-23T04:45:26.589Z,11.50
2023-02-23T04:47:55.339Z,10.50
2023-02-23T04:50:23.771Z,11.70
2023-02-23T04:52:53.402Z,12.60
2023-02-23T04:55:23.857Z,12.20
2023-02-23T04:57:57.717Z,12.20
2023-02-23T05:00:26.700Z,12.60
2023-02-23T05:02:55.467Z,12.50
2023-02-23T05:05:23.568Z,12.20
2023-02-23T05:07:52.014Z,11.60
2023-02-23T05:10:19.998Z,12.20
2023-02-23T05:12:48.070Z,10.70
2023-02-23T05:15:16.613Z,12.90
2023-02-23T05:17:44.744Z,11.40
2023-02-23T05:20:14.269Z,12.20
2023-02-23T05:22:43.056Z,11.90
2023-02-23T05:25:12.034Z,10.30
2023-02-23T05:27:40.868Z,12.50
2023-02-23T05:30:10.546Z,13.80
2023-02-23T05:32:38.780Z,13.10
2023-02-23T05:35:07.709Z,12.80
2023-02-23T05:37:35.850Z,11.20
2023-02-23T05:40:04.907Z,11.90
2023-02-23T05:42:33.044Z,11.30
2023-02-23T05:45:00.925Z,12.50
2023-02-23T05:47:28.990Z,12.50
2023-02-23T05:49:56.948Z,11.10
2023-02-23T05:52:27.135Z,12.60
2023-02-23T05:54:55.981Z,12.40
2023-02-23T05:57:24.405Z,12.00
2023-02-23T05:59:52.367Z,11.70
2023-02-23T06:02:22.614Z,11.70
2023-02-23T06:04:51.159Z,12.30
2023-02-23T06:07:19.662Z,12.30
2023-02-23T06:09:48.056Z,12.90
2023-02-23T06:12:16.044Z,11.80
2023-02-23T06:14:45.075Z,12.40
2023-02-23T06:17:14.373Z,11.90
2023-02-23T06:19:42.587Z,10.80
2023-02-23T06:22:10.533Z,11.60
2023-02-23T06:24:39.239Z,12.90
2023-02-23T06:27:07.313Z,11.70
2023-02-23T06:29:37.204Z,12.70
2023-02-23T06:32:05.733Z,13.80
2023-02-23T06:34:34.422Z,12.80
2023-02-23T06:37:04.156Z,13.20
2023-02-23T06:39:32.467Z,13.00
2023-02-23T06:42:00.505Z,11.60
2023-02-23T06:44:29.504Z,11.60
2023-02-23T06:46:57.487Z,11.80
2023-02-23T06:49:25.497Z,12.40
2023-02-23T06:51:53.768Z,11.70
2023-02-23T06:54:21.832Z,12.80
2023-02-23T06:56:51.040Z,13.50
2023-02-23T06:59:19.527Z,13.40
2023-02-23T07:01:52.350Z,14.10
2023-02-23T07:04:20.573Z,13.00
2023-02-23T07:06:48.878Z,12.10
2023-02-23T07:09:17.346Z,14.70
2023-02-23T07:11:45.488Z,13.10
2023-02-23T07:14:21.443Z,18.20
2023-02-23T07:16:54.840Z,15.30
2023-02-23T07:19:43.516Z,18.40
2023-02-23T07:22:11.574Z,21.40
2023-02-23T07:24:40.020Z,29.40
2023-02-23T07:27:08.335Z,23.90
2023-02-23T07:29:36.862Z,21.40
2023-02-23T07:32:05.759Z,25.70
2023-02-23T07:34:34.099Z,27.10
2023-02-23T07:37:02.334Z,26.50
2023-02-23T07:39:31.243Z,27.20
2023-02-23T07:41:59.252Z,27.30
2023-02-23T07:44:27.942Z,27.60
2023-02-23T07:46:56.293Z,25.40
2023-02-23T07:49:25.696Z,25.40
2023-02-23T07:51:55.182Z,23.50
2023-02-23T07:54:25.487Z,23.40
2023-02-23T07:56:54.000Z,23.50
2023-02-23T07:59:22.763Z,23.30
2023-02-23T08:01:56.346Z,24.60
2023-02-23T08:04:24.905Z,23.60
2023-02-23T08:06:53.650Z,24.60
2023-02-23T08:09:22.344Z,21.50
2023-02-23T08:11:50.940Z,19.10
2023-02-23T08:15:00.416Z,21.40
2023-02-23T08:17:42.315Z,24.20
2023-02-23T08:20:39.776Z,17.20
2023-02-23T08:23:42.998Z,18.00
2023-02-23T08:26:13.146Z,18.20
2023-02-23T08:28:45.272Z,18.50
2023-02-23T08:31:18.860Z,16.10
2023-02-23T08:33:47.400Z,17.20
2023-02-23T08:36:15.997Z,18.00
2023-02-23T08:38:44.377Z,16.90
2023-02-23T08:41:14.757Z,15.50
2023-02-23T08:43:47.001Z,16.10
2023-02-23T08:46:17.266Z,16.00
2023-02-23T08:48:46.881Z,15.40
2023-02-23T08:51:15.146Z,16.20
2023-02-23T08:53:43.384Z,15.50
2023-02-23T08:56:12.872Z,14.60
2023-02-23T08:58:42.338Z,14.40
2023-02-23T09:01:19.948Z,14.60
2023-02-23T09:03:49.591Z,14.70
2023-02-23T09:06:20.831Z,15.30
2023-02-23T09:08:50.382Z,15.50
2023-02-23T09:11:19.599Z,15.80
2023-02-23T09:13:52.724Z,17.90
2023-02-23T09:16:22.667Z,19.20
2023-02-23T09:18:51.100Z,17.60
2023-02-23T09:21:25.449Z,18.20
2023-02-23T09:23:56.310Z,16.80
2023-02-23T09:26:26.410Z,16.10
2023-02-23T09:28:56.029Z,15.90
2023-02-23T09:31:24.804Z,14.70
2023-02-23T09:33:54.923Z,17.20
2023-02-23T09:36:25.735Z,16.50
2023-02-23T09:38:57.328Z,15.80
2023-02-23T09:41:26.714Z,15.40
2023-02-23T09:44:38.829Z,16.30
2023-02-23T09:47:25.294Z,16.00
2023-02-23T09:49:57.458Z,15.10
2023-02-23T09:53:05.876Z,14.10
2023-02-23T09:55:35.505Z,13.60
2023-02-23T09:58:17.109Z,17.20
2023-02-23T10:01:06.742Z,13.80
2023-02-23T10:03:39.971Z,13.00
2023-02-23T10:06:12.202Z,12.60
2023-02-23T10:08:53.541Z,12.00
2023-02-23T10:11:37.654Z,11.90
2023-02-23T10:14:35.347Z,10.40
2023-02-23T10:17:06.954Z,10.70
2023-02-23T10:20:15.819Z,12.80
2023-02-23T10:22:46.096Z,10.30
2023-02-23T10:25:22.922Z,12.10
2023-02-23T10:27:51.929Z,11.90
2023-02-23T10:30:29.968Z,15.80
2023-02-23T10:33:13.624Z,14.30
2023-02-23T10:35:41.681Z,11.80
2023-02-23T10:38:24.194Z,11.40
2023-02-23T10:40:56.909Z,12.80
2023-02-23T10:43:25.820Z,12.20
2023-02-23T10:45:56.788Z,11.00
2023-02-23T10:48:31.245Z,12.90
2023-02-23T10:51:02.820Z,11.50
2023-02-23T10:53:36.509Z,13.50
2023-02-23T10:56:11.036Z,10.50
2023-02-23T10:58:46.877Z,9.90
2023-02-23T11:02:00.351Z,10.70
2023-02-23T11:04:35.109Z,9.30
2023-02-23T11:07:31.782Z,8.00
2023-02-23T11:10:24.924Z,15.80
2023-02-23T11:12:54.076Z,8.30
2023-02-23T11:15:46.323Z,8.90
2023-02-23T11:18:24.484Z,7.70
2023-02-23T11:20:55.430Z,6.90
2023-02-23T11:23:29.298Z,7.90
2023-02-23T11:26:23.183Z,6.80
2023-02-23T11:28:56.565Z,6.50
2023-02-23T11:31:34.919Z,5.90
2023-02-23T11:34:05.427Z,7.20
2023-02-23T11:36:36.152Z,6.00
2023-02-23T11:39:21.268Z,7.40
2023-02-23T11:42:15.998Z,5.70
2023-02-23T11:44:50.661Z,5.80
2023-02-23T11:49:51.203Z,6.80
2023-02-23T11:52:22.860Z,6.70
2023-02-23T11:55:03.165Z,10.80
2023-02-23T11:57:35.376Z,6.70
2023-02-23T12:00:35.186Z,6.50
2023-02-23T12:03:05.630Z,6.30
2023-02-23T12:05:33.825Z,6.30
2023-02-23T12:08:21.490Z,6.10
2023-02-23T12:10:58.928Z,8.10
2023-02-23T12:13:40.075Z,6.20
2023-02-23T12:16:15.703Z,6.90
2023-02-23T12:19:05.106Z,6.60
2023-02-23T12:21:39.819Z,5.70
2023-02-23T12:24:08.412Z,6.00
2023-02-23T12:26:45.517Z,6.40
2023-02-23T12:29:46.854Z,6.00
2023-02-23T12:32:21.389Z,6.70
2023-02-23T12:35:01.648Z,6.80
2023-02-23T12:37:42.269Z,6.30
2023-02-23T12:40:12.080Z,6.60
2023-02-23T12:42:56.892Z,6.80
2023-02-23T12:45:52.398Z,6.70
2023-02-23T12:51:19.506Z,7.40
2023-02-23T12:53:48.697Z,7.00
2023-02-23T12:56:35.682Z,8.40
2023-02-23T12:59:38.009Z,7.00
2023-02-23T13:02:19.094Z,7.90
2023-02-23T13:05:13.198Z,8.20
2023-02-23T13:08:20.786Z,10.70
2023-02-23T13:11:00.972Z,19.80
2023-02-23T13:13:45.918Z,10.90
2023-02-23T13:16:17.404Z,10.50
2023-02-23T13:19:04.931Z,6.90
2023-02-23T13:21:45.069Z,7.20
2023-02-23T13:24:19.147Z,8.80
2023-02-23T13:27:03.921Z,8.10
2023-02-23T13:29:48.927Z,9.10
2023-02-23T13:32:21.563Z,8.70
2023-02-23T13:34:52.829Z,7.50
2023-02-23T13:37:56.335Z,8.50
2023-02-23T13:41:02.269Z,8.40
2023-02-23T13:43:47.737Z,7.90
2023-02-23T13:46:32.019Z,7.90
2023-02-23T13:49:12.073Z,8.50
2023-02-23T13:51:50.104Z,8.90
2023-02-23T13:54:23.645Z,13.60
2023-02-23T13:56:58.537Z,8.50
2023-02-23T13:59:30.816Z,8.80
2023-02-23T14:02:03.346Z,9.30
2023-02-23T14:04:37.557Z,8.00
2023-02-23T14:07:10.496Z,6.60
2023-02-23T14:09:47.690Z,7.60
2023-02-23T14:12:33.527Z,8.50
2023-02-23T14:18:02.663Z,7.00
2023-02-23T14:21:04.221Z,6.00
2023-02-23T14:24:06.549Z,8.50
2023-02-23T14:26:41.940Z,8.20
2023-02-23T14:29:17.300Z,7.40
2023-02-23T14:32:02.827Z,7.70
2023-02-23T14:37:36.792Z,7.90
2023-02-23T14:40:21.268Z,8.60
2023-02-23T14:43:03.389Z,7.90
2023-02-23T14:45:36.757Z,12.80
2023-02-23T14:48:17.192Z,9.20
2023-02-23T14:50:45.543Z,10.50
2023-02-23T14:53:28.965Z,8.60
2023-02-23T14:55:58.841Z,9.00
2023-02-23T14:58:36.694Z,9.00
2023-02-23T15:01:07.620Z,9.50
2023-02-23T15:03:40.458Z,8.90
2023-02-23T15:06:10.869Z,9.70
2023-02-23T15:08:44.820Z,9.20
2023-02-23T15:11:14.923Z,9.50
2023-02-23T15:13:51.193Z,19.00
2023-02-23T15:16:35.050Z,9.50
2023-02-23T15:19:05.308Z,11.40
2023-02-23T15:21:36.016Z,9.50
2023-02-23T15:24:13.182Z,10.10
2023-02-23T15:26:43.865Z,9.40
2023-02-23T15:29:21.097Z,11.30
2023-02-23T15:31:52.834Z,11.10
2023-02-23T15:34:30.057Z,14.00
2023-02-23T15:37:11.115Z,15.30
2023-02-23T15:39:44.664Z,17.60
2023-02-23T15:42:22.150Z,13.30
2023-02-23T15:44:57.691Z,11.80
2023-02-23T15:47:29.193Z,14.50
2023-02-23T15:50:05.689Z,12.30
2023-02-23T15:52:37.796Z,12.30
2023-02-23T15:55:12.497Z,10.80
2023-02-23T15:57:53.314Z,11.20
2023-02-23T16:00:32.747Z,11.00
2023-02-23T16:03:04.524Z,13.00
2023-02-23T16:05:47.039Z,11.40
2023-02-23T16:08:22.961Z,12.70
2023-02-23T16:11:03.151Z,12.00
2023-02-23T16:13:31.554Z,11.60
2023-02-23T16:16:00.459Z,13.10
2023-02-23T16:18:43.317Z,12.80
2023-02-23T16:21:17.589Z,13.00
2023-02-23T16:23:49.386Z,14.50
2023-02-23T16:26:52.058Z,14.80
2023-02-23T16:29:28.499Z,13.10
2023-02-23T16:32:01.165Z,13.10
2023-02-23T16:34:29.580Z,12.90
2023-02-23T16:37:03.143Z,18.60
2023-02-23T16:39:34.434Z,17.70
2023-02-23T16:42:02.688Z,16.20
2023-02-23T16:44:43.004Z,14.30
2023-02-23T16:47:24.065Z,14.80
2023-02-23T16:49:52.740Z,15.10
2023-02-23T16:52:24.175Z,15.40
2023-02-23T16:54:56.160Z,15.50
2023-02-23T16:57:27.074Z,14.60
2023-02-23T16:59:57.606Z,15.50
2023-02-23T17:02:26.584Z,17.60
2023-02-23T17:04:59.102Z,22.90
2023-02-23T17:07:27.233Z,25.30
2023-02-23T17:09:59.266Z,20.20
2023-02-23T17:12:27.766Z,22.20
2023-02-23T17:14:57.491Z,22.90
2023-02-23T17:17:26.695Z,21.30
2023-02-23T17:19:55.500Z,22.20
2023-02-23T17:22:23.527Z,29.70
2023-02-23T17:24:51.496Z,22.10
2023-02-23T17:27:19.580Z,22.30
2023-02-23T17:29:47.750Z,22.60
2023-02-23T17:32:17.162Z,22.10
2023-02-23T17:34:45.913Z,24.80
2023-02-23T17:37:14.032Z,23.10
2023-02-23T17:39:42.358Z,25.50
2023-02-23T17:42:10.546Z,24.70
2023-02-23T17:44:38.617Z,28.40
2023-02-23T17:47:07.018Z,27.80
2023-02-23T17:49:35.908Z,27.40
2023-02-23T17:52:04.163Z,27.20
2023-02-23T17:54:34.404Z,27.90
2023-02-23T17:57:02.510Z,27.80
2023-02-23T17:59:30.544Z,29.60
2023-02-23T18:01:58.674Z,26.00
2023-02-23T18:04:27.266Z,25.10
2023-02-23T18:06:56.758Z,26.60
2023-02-23T18:09:24.842Z,27.60
2023-02-23T18:11:52.855Z,30.40
2023-02-23T18:14:22.498Z,28.90
2023-02-23T18:16:50.697Z,30.00
2023-02-23T18:19:19.421Z,36.60
2023-02-23T18:21:50.164Z,33.20
2023-02-23T18:24:18.739Z,32.70
2023-02-23T18:26:46.672Z,35.90
2023-02-23T18:29:15.450Z,29.30
2023-02-23T18:31:43.672Z,30.50
2023-02-23T18:34:12.268Z,27.50
2023-02-23T18:36:41.833Z,22.80
2023-02-23T18:39:12.539Z,20.80
2023-02-23T18:41:44.234Z,20.00
2023-02-23T18:44:15.968Z,21.20
2023-02-23T18:46:46.462Z,21.50
2023-02-23T18:49:19.768Z,25.20
2023-02-23T18:51:48.387Z,24.60
2023-02-23T18:54:19.289Z,25.20
2023-02-23T18:56:49.875Z,27.50
2023-02-23T18:59:19.753Z,28.50
2023-02-23T19:01:52.080Z,32.90
2023-02-23T19:04:22.140Z,32.40
2023-02-23T19:06:51.236Z,32.00
2023-02-23T19:09:21.382Z,31.20
2023-02-23T19:11:52.550Z,35.10
2023-02-23T19:14:32.973Z,34.40
2023-02-23T19:17:09.019Z,32.60
2023-02-23T19:19:38.171Z,30.80
2023-02-23T19:22:08.465Z,31.80
2023-02-23T19:24:38.163Z,32.50
2023-02-23T19:27:06.624Z,32.70
2023-02-23T19:29:34.840Z,32.00
2023-02-23T19:32:05.663Z,33.40
2023-02-23T19:34:36.209Z,34.30
2023-02-23T19:37:04.344Z,32.20
2023-02-23T19:39:36.557Z,33.80
2023-02-23T19:42:05.096Z,35.70
2023-02-23T19:44:34.048Z,34.20
2023-02-23T19:47:02.140Z,31.70
2023-02-23T19:49:30.540Z,32.90
2023-02-23T19:51:59.232Z,29.30
2023-02-23T19:54:28.694Z,31.70
2023-02-23T19:56:57.744Z,36.70
2023-02-23T19:59:26.368Z,32.20
2023-02-23T20:01:55.414Z,31.20
2023-02-23T20:04:24.590Z,30.60
2023-02-23T20:06:54.378Z,31.10
2023-02-23T20:09:22.632Z,34.40
2023-02-23T20:11:50.632Z,31.30
2023-02-23T20:14:18.749Z,36.00
2023-02-23T20:16:48.446Z,32.80
2023-02-23T20:19:17.481Z,31.90
2023-02-23T20:21:45.628Z,31.60
2023-02-23T20:24:15.697Z,32.90
2023-02-23T20:26:44.300Z,33.20
2023-02-23T20:29:18.993Z,32.50
2023-02-23T20:31:51.789Z,34.80
2023-02-23T20:34:24.402Z,34.70
2023-02-23T20:36:55.133Z,33.70
2023-02-23T20:39:27.231Z,32.40
2023-02-23T20:41:56.555Z,33.90
2023-02-23T20:44:24.935Z,33.10
2023-02-23T20:46:54.264Z,30.30
2023-02-23T20:49:23.382Z,33.10
2023-02-23T20:51:51.536Z,30.70
2023-02-23T20:54:20.401Z,38.80
2023-02-23T20:56:58.933Z,29.50
2023-02-23T20:59:29.721Z,33.30
2023-02-23T21:01:57.789Z,34.20
2023-02-23T21:04:26.750Z,34.70
2023-02-23T21:06:54.909Z,33.70
2023-02-23T21:09:24.421Z,35.60
2023-02-23T21:11:52.422Z,31.00
2023-02-23T21:14:21.590Z,29.30
2023-02-23T21:16:50.942Z,32.60
2023-02-23T21:19:23.181Z,31.60
2023-02-23T21:21:58.033Z,29.80
2023-02-23T21:24:26.639Z,33.20
2023-02-23T21:26:54.522Z,33.20
2023-02-23T21:29:23.865Z,31.00
2023-02-23T21:31:53.341Z,33.80
2023-02-23T21:34:21.513Z,30.20
2023-02-23T21:36:51.444Z,33.40
2023-02-23T21:39:19.713Z,31.20
2023-02-23T21:41:48.196Z,29.80
2023-02-23T21:44:16.284Z,30.20
2023-02-23T21:46:44.379Z,27.70
2023-02-23T21:49:12.647Z,28.60
2023-02-23T21:51:40.742Z,30.90
2023-02-23T21:54:09.653Z,30.00
2023-02-23T21:56:37.780Z,30.20
2023-02-23T21:59:08.804Z,27.10
2023-02-23T22:01:39.694Z,29.70
2023-02-23T22:04:13.393Z,27.50
2023-02-23T22:06:44.127Z,27.10
2023-02-23T22:09:16.069Z,27.90
2023-02-23T22:11:47.268Z,28.50
2023-02-23T22:14:18.151Z,25.80
2023-02-23T22:16:46.588Z,27.70
2023-02-23T22:19:14.930Z,27.80
2023-02-23T22:21:44.466Z,25.30
2023-02-23T22:24:14.260Z,25.90
2023-02-23T22:26:50.692Z,28.50
2023-02-23T22:29:18.837Z,29.60
2023-02-23T22:31:47.349Z,28.80
2023-02-23T22:34:15.572Z,28.20
2023-02-23T22:36:45.551Z,29.20
2023-02-23T22:39:16.422Z,26.40
2023-02-23T22:41:46.293Z,28.80
2023-02-23T22:44:21.379Z,28.20
2023-02-23T22:49:21.847Z,28.00
2023-02-23T22:51:51.510Z,29.30
2023-02-23T22:54:23.718Z,28.00
2023-02-23T22:56:52.807Z,28.90
2023-02-23T22:59:20.912Z,28.90
2023-02-23T23:01:50.663Z,30.30
2023-02-23T23:04:22.511Z,28.90
2023-02-23T23:06:51.382Z,28.00
2023-02-23T23:09:21.200Z,27.80
2023-02-23T23:11:50.938Z,26.50
2023-02-23T23:14:23.189Z,28.80
2023-02-23T23:16:51.362Z,25.60
2023-02-23T23:19:24.517Z,26.20
2023-02-23T23:21:55.358Z,26.80
2023-02-23T23:24:24.983Z,25.00
2023-02-23T23:26:55.737Z,24.20
2023-02-23T23:29:25.859Z,29.30
2023-02-23T23:31:57.068Z,30.80
2023-02-23T23:34:25.346Z,28.90
2023-02-23T23:36:53.586Z,28.30
2023-02-23T23:39:23.864Z,30.60
2023-02-23T23:41:52.127Z,30.30
2023-02-23T23:44:24.246Z,27.10
2023-02-23T23:46:52.813Z,28.10
2023-02-23T23:49:25.689Z,28.80
2023-02-23T23:51:56.885Z,28.30
2023-02-23T23:54:28.394Z,30.30
2023-02-23T23:56:57.986Z,28.20
2023-02-23T23:59:26.788Z,27.90
